createdAt,value
2019-04-07T00:01:40.083Z,33.23
2019-04-07T00:04:09.552Z,28.85
2019-04-07T00:06:39.438Z,31.57
2019-04-07T00:09:09.723Z,29.75
2019-04-07T00:11:39.635Z,32.85
2019-04-07T00:14:09.170Z,27.93
2019-04-07T00:16:40.008Z,31.00
2019-04-07T00:19:09.850Z,28.45
2019-04-07T00:21:39.612Z,31.30
2019-04-07T00:24:09.226Z,32.90
2019-04-07T00:26:39.381Z,32.85
2019-04-07T00:29:09.719Z,30.32
2019-04-07T00:31:39.834Z,28.65
2019-04-07T00:34:09.639Z,27.98
2019-04-07T00:36:39.674Z,34.03
2019-04-07T00:39:09.485Z,30.17
2019-04-07T00:41:38.987Z,33.60
2019-04-07T00:44:08.398Z,32.67
2019-04-07T00:46:37.807Z,29.70
2019-04-07T00:49:07.442Z,29.15
2019-04-07T00:51:37.399Z,30.60
2019-04-07T00:54:13.916Z,32.53
2019-04-07T00:56:43.950Z,31.30
2019-04-07T00:59:27.127Z,30.70
2019-04-07T01:01:56.768Z,31.55
2019-04-07T01:04:26.512Z,34.27
2019-04-07T01:06:56.162Z,34.30
2019-04-07T01:09:26.520Z,33.83
2019-04-07T01:11:55.921Z,35.63
2019-04-07T01:14:25.606Z,36.63
2019-04-07T01:16:56.187Z,30.20
2019-04-07T01:19:25.696Z,32.38
2019-04-07T01:21:55.729Z,32.28
2019-04-07T01:24:25.341Z,32.15
2019-04-07T01:26:55.841Z,29.45
2019-04-07T01:29:25.530Z,33.28
2019-04-07T01:31:55.014Z,31.82
2019-04-07T01:34:25.004Z,30.05
2019-04-07T01:36:54.596Z,29.75
2019-04-07T01:39:25.665Z,31.45
2019-04-07T01:41:57.138Z,29.60
2019-04-07T01:44:28.401Z,31.05
2019-04-07T01:47:05.643Z,31.27
2019-04-07T01:49:46.569Z,27.85
2019-04-07T01:52:21.071Z,29.10
2019-04-07T01:55:10.115Z,30.10
2019-04-07T01:57:57.507Z,35.70
2019-04-07T02:00:31.658Z,29.18
2019-04-07T02:03:03.380Z,29.37
2019-04-07T02:05:58.694Z,29.30
2019-04-07T02:08:40.248Z,33.05
2019-04-07T02:11:21.134Z,28.87
2019-04-07T02:14:08.674Z,27.40
2019-04-07T02:16:51.560Z,32.40
2019-04-07T02:19:26.284Z,28.50
2019-04-07T02:21:58.270Z,29.67
2019-04-07T02:24:38.947Z,27.65
2019-04-07T02:27:10.671Z,27.75
2019-04-07T02:29:51.197Z,31.10
2019-04-07T02:32:37.926Z,28.87
2019-04-07T02:35:12.248Z,26.68
2019-04-07T02:37:44.503Z,30.92
2019-04-07T02:40:31.171Z,30.75
2019-04-07T02:43:11.349Z,27.95
2019-04-07T02:45:47.551Z,28.40
2019-04-07T02:48:25.233Z,28.25
2019-04-07T02:51:01.208Z,27.10
2019-04-07T02:53:53.130Z,28.38
2019-04-07T02:56:30.245Z,28.62
2019-04-07T02:59:01.474Z,30.50
2019-04-07T03:01:35.502Z,26.75
2019-04-07T03:04:09.605Z,27.02
2019-04-07T03:06:57.207Z,30.88
2019-04-07T03:09:34.897Z,26.10
2019-04-07T03:12:21.278Z,28.50
2019-04-07T03:15:02.814Z,28.55
2019-04-07T03:17:37.615Z,26.33
2019-04-07T03:20:12.240Z,25.43
2019-04-07T03:23:00.206Z,25.17
2019-04-07T03:25:40.155Z,27.15
2019-04-07T03:28:11.807Z,25.97
2019-04-07T03:30:54.714Z,24.47
2019-04-07T03:33:30.047Z,24.47
2019-04-07T03:36:06.077Z,25.23
2019-04-07T03:38:53.661Z,29.18
2019-04-07T03:41:33.923Z,25.62
2019-04-07T03:44:06.067Z,27.65
2019-04-07T03:46:55.194Z,27.27
2019-04-07T03:49:27.336Z,25.88
2019-04-07T03:52:14.809Z,24.60
2019-04-07T03:54:48.838Z,24.63
2019-04-07T03:57:19.882Z,26.15
2019-04-07T03:59:57.682Z,28.10
2019-04-07T04:02:42.381Z,27.65
2019-04-07T04:05:19.172Z,28.32
2019-04-07T04:07:50.199Z,25.15
2019-04-07T04:10:21.282Z,25.68
2019-04-07T04:12:55.166Z,24.18
2019-04-07T04:15:26.400Z,24.20
2019-04-07T04:18:16.119Z,26.75
2019-04-07T04:20:46.368Z,29.07
2019-04-07T04:23:15.861Z,25.97
2019-04-07T04:25:45.690Z,24.77
2019-04-07T04:28:16.092Z,24.30
2019-04-07T04:30:45.908Z,23.62
2019-04-07T04:33:15.908Z,28.47
2019-04-07T04:35:46.075Z,26.20
2019-04-07T04:38:15.822Z,26.33
2019-04-07T04:40:45.942Z,23.30
2019-04-07T04:43:15.590Z,24.30
2019-04-07T04:45:46.127Z,28.67
2019-04-07T04:48:15.724Z,25.10
2019-04-07T04:50:47.085Z,25.17
2019-04-07T04:53:17.130Z,26.52
2019-04-07T04:55:47.202Z,23.70
2019-04-07T04:58:17.495Z,25.23
2019-04-07T05:00:48.441Z,22.58
2019-04-07T05:03:19.462Z,25.75
2019-04-07T05:05:49.008Z,28.02
2019-04-07T05:08:18.407Z,27.48
2019-04-07T05:10:48.260Z,25.72
2019-04-07T05:13:18.048Z,27.73
2019-04-07T05:15:47.840Z,24.32
2019-04-07T05:18:17.941Z,24.70
2019-04-07T05:20:47.687Z,22.93
2019-04-07T05:23:18.010Z,25.68
2019-04-07T05:25:48.132Z,27.98
2019-04-07T05:28:17.675Z,25.88
2019-04-07T05:30:47.981Z,24.92
2019-04-07T05:33:17.564Z,25.95
2019-04-07T05:35:46.963Z,22.42
2019-04-07T05:38:16.378Z,26.05
2019-04-07T05:40:46.291Z,26.27
2019-04-07T05:43:16.133Z,26.27
2019-04-07T05:45:46.236Z,24.45
2019-04-07T05:48:18.529Z,23.83
2019-04-07T05:50:47.296Z,27.58
2019-04-07T05:53:31.231Z,21.68
2019-04-07T05:56:01.075Z,23.60
2019-04-07T05:58:30.597Z,26.48
2019-04-07T06:01:00.253Z,27.87
2019-04-07T06:03:29.830Z,26.55
2019-04-07T06:05:59.367Z,27.98
2019-04-07T06:08:35.577Z,28.75
2019-04-07T06:11:01.583Z,26.05
2019-04-07T06:13:31.288Z,29.25
2019-04-07T06:16:01.024Z,28.30
2019-04-07T06:18:33.844Z,28.15
2019-04-07T06:21:01.588Z,28.45
2019-04-07T06:23:31.421Z,27.48
2019-04-07T06:26:00.883Z,28.35
2019-04-07T06:28:30.358Z,27.58
2019-04-07T06:31:01.351Z,26.62
2019-04-07T06:33:31.953Z,27.85
2019-04-07T06:36:01.524Z,28.25
2019-04-07T06:38:34.580Z,29.98
2019-04-07T06:41:03.082Z,25.32
2019-04-07T06:43:36.631Z,28.38
2019-04-07T06:46:09.341Z,28.20
2019-04-07T06:48:41.240Z,25.62
2019-04-07T06:51:12.599Z,31.27
2019-04-07T06:53:52.449Z,31.00
2019-04-07T06:56:35.662Z,30.60
2019-04-07T06:59:13.917Z,26.12
2019-04-07T07:01:42.799Z,25.90
2019-04-07T07:04:30.143Z,25.77
2019-04-07T07:07:06.108Z,27.27
2019-04-07T07:09:54.815Z,25.60
2019-04-07T07:12:32.832Z,28.12
2019-04-07T07:15:00.937Z,31.30
2019-04-07T07:17:38.267Z,32.00
2019-04-07T07:20:15.693Z,34.23
2019-04-07T07:22:56.154Z,28.52
2019-04-07T07:25:28.581Z,29.18
2019-04-07T07:27:57.061Z,31.80
2019-04-07T07:30:27.331Z,34.03
2019-04-07T07:32:56.866Z,40.05
2019-04-07T07:35:27.206Z,43.35
2019-04-07T07:37:59.442Z,47.03
2019-04-07T07:40:27.841Z,49.05
2019-04-07T07:42:59.098Z,59.75
2019-04-07T07:45:28.390Z,56.92
2019-04-07T07:47:57.824Z,59.80
2019-04-07T07:50:28.373Z,56.28
2019-04-07T07:52:58.267Z,64.32
2019-04-07T07:55:33.847Z,69.37
2019-04-07T07:58:00.997Z,65.55
2019-04-07T08:00:30.952Z,63.55
2019-04-07T08:03:00.444Z,60.67
2019-04-07T08:05:33.340Z,64.70
2019-04-07T08:08:01.756Z,60.55
2019-04-07T08:10:31.287Z,62.50
2019-04-07T08:13:05.110Z,73.57
2019-04-07T08:15:33.330Z,84.25
2019-04-07T08:18:06.980Z,73.42
2019-04-07T08:20:34.867Z,73.70
2019-04-07T08:23:04.718Z,72.62
2019-04-07T08:25:34.811Z,72.42
2019-04-07T08:28:04.687Z,74.75
2019-04-07T08:30:34.293Z,74.82
2019-04-07T08:33:03.821Z,79.92
2019-04-07T08:35:37.675Z,67.00
2019-04-07T08:38:04.634Z,75.83
2019-04-07T08:40:36.538Z,79.62
2019-04-07T08:43:21.191Z,74.42
2019-04-07T08:45:51.428Z,80.38
2019-04-07T08:48:21.595Z,80.05
2019-04-07T08:50:51.805Z,79.80
2019-04-07T08:53:21.593Z,74.32
2019-04-07T08:55:54.250Z,73.80
2019-04-07T08:58:27.174Z,75.70
2019-04-07T09:00:55.147Z,75.20
2019-04-07T09:03:24.631Z,77.53
2019-04-07T09:05:56.484Z,81.00
2019-04-07T09:08:26.054Z,74.50
2019-04-07T09:11:00.456Z,74.12
2019-04-07T09:13:33.118Z,77.75
2019-04-07T09:16:20.753Z,80.53
2019-04-07T09:19:01.789Z,81.85
2019-04-07T09:21:49.503Z,86.25
2019-04-07T09:24:32.746Z,81.37
2019-04-07T09:27:11.317Z,81.80
2019-04-07T09:29:46.053Z,89.55
2019-04-07T09:32:23.730Z,89.85
2019-04-07T09:34:56.123Z,91.00
2019-04-07T09:37:36.704Z,83.97
2019-04-07T09:40:18.553Z,79.70
2019-04-07T09:42:59.249Z,79.42
2019-04-07T09:45:44.774Z,83.75
2019-04-07T09:48:25.518Z,85.67
2019-04-07T09:51:04.155Z,76.10
2019-04-07T09:53:50.250Z,84.37
2019-04-07T09:56:29.919Z,88.35
2019-04-07T09:59:19.074Z,84.97
2019-04-07T10:02:08.214Z,80.35
2019-04-07T10:04:42.598Z,72.62
2019-04-07T10:07:30.509Z,71.85
2019-04-07T10:10:10.779Z,73.52
2019-04-07T10:12:46.454Z,71.97
2019-04-07T10:15:18.788Z,80.72
2019-04-07T10:18:02.065Z,74.12
2019-04-07T10:20:49.161Z,75.40
2019-04-07T10:23:23.226Z,81.70
2019-04-07T10:25:57.683Z,80.25
2019-04-07T10:28:46.166Z,72.22
2019-04-07T10:31:23.569Z,84.30
2019-04-07T10:33:54.736Z,84.32
2019-04-07T10:36:42.501Z,135.50
2019-04-07T10:39:14.259Z,111.62
2019-04-07T10:41:48.290Z,101.22
2019-04-07T10:44:26.399Z,90.72
2019-04-07T10:47:13.873Z,84.30
2019-04-07T10:50:06.199Z,84.85
2019-04-07T10:52:45.963Z,93.30
2019-04-07T10:55:20.635Z,93.78
2019-04-07T10:58:00.771Z,81.22
2019-04-07T11:00:50.985Z,84.22
2019-04-07T11:03:34.179Z,82.25
2019-04-07T11:06:14.882Z,85.87
2019-04-07T11:08:55.986Z,88.95
2019-04-07T11:11:47.866Z,84.62
2019-04-07T11:14:18.457Z,88.72
2019-04-07T11:17:06.537Z,85.22
2019-04-07T11:19:38.692Z,83.95
2019-04-07T11:22:26.609Z,84.97
2019-04-07T11:25:16.987Z,82.10
2019-04-07T11:27:48.447Z,95.30
2019-04-07T11:30:19.699Z,100.07
2019-04-07T11:32:50.744Z,92.72
2019-04-07T11:35:22.211Z,102.07
2019-04-07T11:37:55.852Z,101.72
2019-04-07T11:40:27.162Z,95.38
2019-04-07T11:42:58.970Z,97.55
2019-04-07T11:45:58.422Z,87.57
2019-04-07T11:48:37.052Z,86.72
2019-04-07T11:54:08.703Z,98.03
2019-04-07T11:56:40.174Z,87.40
2019-04-07T11:59:21.943Z,91.50
2019-04-07T12:01:53.144Z,93.40
2019-04-07T12:04:24.935Z,91.67
2019-04-07T12:07:03.551Z,89.05
2019-04-07T12:09:51.027Z,89.83
2019-04-07T12:12:31.110Z,91.28
2019-04-07T12:15:23.643Z,87.72
2019-04-07T12:17:59.154Z,90.80
2019-04-07T12:20:43.971Z,91.75
2019-04-07T12:23:23.395Z,100.38
2019-04-07T12:26:10.146Z,95.83
2019-04-07T12:28:41.253Z,94.92
2019-04-07T12:31:18.553Z,89.80
2019-04-07T12:33:52.786Z,92.85
2019-04-07T12:36:40.823Z,92.35
2019-04-07T12:39:17.326Z,90.60
2019-04-07T12:41:51.094Z,87.60
2019-04-07T12:44:25.407Z,91.65
2019-04-07T12:46:59.179Z,91.63
2019-04-07T12:49:46.957Z,84.67
2019-04-07T12:52:20.712Z,86.42
2019-04-07T12:55:08.334Z,96.42
2019-04-07T12:57:39.888Z,84.25
2019-04-07T13:00:29.745Z,84.13
2019-04-07T13:03:10.411Z,87.88
2019-04-07T13:05:50.917Z,88.52
2019-04-07T13:08:24.687Z,108.10
2019-04-07T13:10:59.124Z,92.00
2019-04-07T13:13:32.752Z,95.92
2019-04-07T13:19:19.895Z,92.35
2019-04-07T13:21:53.329Z,87.67
2019-04-07T13:24:31.800Z,87.30
2019-04-07T13:27:04.004Z,87.20
2019-04-07T13:29:40.121Z,83.25
2019-04-07T13:32:19.411Z,95.45
2019-04-07T13:34:56.302Z,95.97
2019-04-07T13:37:30.950Z,90.72
2019-04-07T13:40:02.142Z,86.72
2019-04-07T13:42:36.753Z,91.25
2019-04-07T13:45:15.583Z,113.22
2019-04-07T13:50:41.833Z,227.78
2019-04-07T13:53:31.835Z,183.12
2019-04-07T13:56:18.673Z,185.37
2019-04-07T13:59:06.614Z,146.62
2019-04-07T14:01:38.412Z,158.82
2019-04-07T14:04:25.158Z,149.93
2019-04-07T14:07:13.171Z,158.25
2019-04-07T14:09:50.697Z,156.80
2019-04-07T14:12:24.893Z,167.45
2019-04-07T14:15:05.206Z,158.72
2019-04-07T14:17:43.775Z,150.12
2019-04-07T14:20:16.068Z,175.70
2019-04-07T14:22:50.525Z,171.75
2019-04-07T14:25:33.492Z,159.03
2019-04-07T14:28:07.866Z,249.73
2019-04-07T14:30:47.823Z,234.72
2019-04-07T14:36:29.990Z,314.75
2019-04-07T14:39:07.264Z,216.38
2019-04-07T14:41:40.127Z,184.93
2019-04-07T14:44:12.881Z,136.92
2019-04-07T14:46:50.169Z,129.32
2019-04-07T14:49:21.328Z,122.78
2019-04-07T14:52:10.961Z,123.02
2019-04-07T14:54:44.847Z,131.78
2019-04-07T14:57:16.901Z,118.35
2019-04-07T15:00:05.249Z,126.07
2019-04-07T15:02:35.433Z,123.87
2019-04-07T15:05:23.240Z,118.13
2019-04-07T15:07:52.721Z,106.87
2019-04-07T15:10:24.440Z,114.28
2019-04-07T15:12:55.777Z,112.65
2019-04-07T15:15:26.792Z,113.55
2019-04-07T15:17:56.366Z,111.72
2019-04-07T15:20:25.779Z,120.10
2019-04-07T15:22:58.352Z,114.50
2019-04-07T15:25:27.695Z,106.92
2019-04-07T15:27:58.907Z,112.95
2019-04-07T15:30:28.498Z,108.70
2019-04-07T15:33:01.017Z,118.75
2019-04-07T15:35:50.192Z,111.92
2019-04-07T15:38:23.770Z,125.92
2019-04-07T15:40:51.732Z,122.45
2019-04-07T15:43:22.244Z,117.40
2019-04-07T15:45:52.225Z,121.55
2019-04-07T15:48:25.836Z,117.37
2019-04-07T15:50:54.746Z,109.97
2019-04-07T15:53:24.509Z,127.87
2019-04-07T15:56:02.062Z,116.82
2019-04-07T15:58:27.641Z,108.87
2019-04-07T16:00:57.474Z,114.45
2019-04-07T16:03:27.715Z,110.85
2019-04-07T16:05:59.105Z,106.20
2019-04-07T16:08:29.986Z,111.97
2019-04-07T16:11:00.624Z,106.83
2019-04-07T16:13:30.401Z,124.87
2019-04-07T16:15:59.942Z,121.67
2019-04-07T16:18:29.347Z,115.62
2019-04-07T16:20:58.762Z,111.28
2019-04-07T16:23:28.350Z,111.75
2019-04-07T16:25:59.233Z,115.52
2019-04-07T16:28:29.601Z,113.37
2019-04-07T16:30:59.275Z,105.83
2019-04-07T16:33:32.525Z,116.12
2019-04-07T16:36:00.060Z,113.08
2019-04-07T16:38:30.362Z,121.02
2019-04-07T16:41:01.612Z,116.42
2019-04-07T16:43:33.788Z,105.47
2019-04-07T16:46:02.307Z,109.65
2019-04-07T16:48:35.924Z,111.55
2019-04-07T16:51:26.398Z,104.07
2019-04-07T16:53:54.222Z,110.17
2019-04-07T16:56:23.757Z,113.08
2019-04-07T16:58:53.476Z,100.67
2019-04-07T17:01:25.383Z,97.90
2019-04-07T17:03:55.425Z,95.72
2019-04-07T17:06:27.763Z,97.97
2019-04-07T17:08:56.473Z,94.65
2019-04-07T17:11:25.977Z,98.40
2019-04-07T17:13:55.891Z,88.67
2019-04-07T17:16:25.428Z,86.72
2019-04-07T17:18:56.163Z,94.60
2019-04-07T17:21:26.658Z,85.70
2019-04-07T17:23:56.903Z,93.45
2019-04-07T17:26:26.470Z,83.62
2019-04-07T17:28:57.394Z,79.92
2019-04-07T17:31:29.901Z,79.03
2019-04-07T17:33:58.639Z,79.40
2019-04-07T17:36:28.245Z,77.97
2019-04-07T17:39:09.623Z,70.78
2019-04-07T17:41:39.353Z,78.33
2019-04-07T17:44:24.492Z,72.55
2019-04-07T17:46:58.896Z,73.60
2019-04-07T17:49:39.330Z,73.05
2019-04-07T17:52:11.203Z,71.55
2019-04-07T17:54:54.027Z,71.95
2019-04-07T17:57:34.860Z,65.80
2019-04-07T18:00:16.494Z,67.22
2019-04-07T18:02:53.608Z,64.20
2019-04-07T18:05:27.950Z,69.90
2019-04-07T18:08:15.828Z,68.97
2019-04-07T18:10:50.746Z,74.95
2019-04-07T18:13:26.004Z,73.62
2019-04-07T18:15:58.250Z,76.67
2019-04-07T18:18:47.620Z,76.42
2019-04-07T18:21:25.216Z,78.83
2019-04-07T18:24:02.368Z,87.60
2019-04-07T18:26:37.348Z,83.27
2019-04-07T18:29:25.683Z,88.95
2019-04-07T18:32:11.230Z,106.90
2019-04-07T18:35:01.234Z,104.85
2019-04-07T18:37:48.587Z,106.85
2019-04-07T18:40:29.516Z,112.85
2019-04-07T18:43:19.245Z,121.15
2019-04-07T18:46:08.416Z,121.42
2019-04-07T18:48:40.233Z,126.53
2019-04-07T18:51:13.875Z,128.07
2019-04-07T18:54:04.095Z,124.75
2019-04-07T18:56:34.932Z,130.00
2019-04-07T18:59:26.811Z,128.30
2019-04-07T19:02:16.242Z,127.80
2019-04-07T19:04:49.186Z,134.37
2019-04-07T19:07:39.898Z,139.28
2019-04-07T19:10:22.877Z,135.65
2019-04-07T19:13:01.915Z,140.70
2019-04-07T19:15:26.030Z,133.47
2019-04-07T19:18:02.168Z,135.35
2019-04-07T19:20:34.153Z,125.80
2019-04-07T19:23:11.307Z,127.85
2019-04-07T19:25:58.867Z,129.07
2019-04-07T19:28:42.330Z,137.00
2019-04-07T19:31:19.574Z,129.78
2019-04-07T19:33:50.797Z,127.45
2019-04-07T19:36:28.092Z,125.97
2019-04-07T19:39:09.058Z,129.70
2019-04-07T19:41:56.468Z,126.00
2019-04-07T19:44:37.103Z,125.70
2019-04-07T19:47:03.161Z,124.20
2019-04-07T19:49:36.803Z,132.12
2019-04-07T19:52:09.334Z,128.12
2019-04-07T19:54:52.936Z,123.50
2019-04-07T19:57:24.045Z,130.27
2019-04-07T19:59:57.944Z,130.80
2019-04-07T20:02:45.513Z,124.22
2019-04-07T20:05:23.333Z,130.00
2019-04-07T20:07:59.333Z,133.87
2019-04-07T20:10:32.622Z,140.05
2019-04-07T20:13:09.513Z,131.82
2019-04-07T20:15:58.064Z,147.17
2019-04-07T20:18:46.018Z,137.07
2019-04-07T20:21:39.056Z,140.70
2019-04-07T20:24:21.768Z,137.90
2019-04-07T20:27:09.456Z,141.12
2019-04-07T20:29:43.756Z,141.77
2019-04-07T20:32:25.196Z,138.57
2019-04-07T20:35:12.299Z,141.73
2019-04-07T20:37:58.346Z,145.28
2019-04-07T20:40:45.572Z,149.50
2019-04-07T20:43:23.569Z,146.60
2019-04-07T20:46:06.905Z,145.17
2019-04-07T20:48:41.585Z,143.95
2019-04-07T20:51:29.602Z,143.93
2019-04-07T20:54:06.387Z,144.68
2019-04-07T20:56:49.896Z,149.07
2019-04-07T20:59:25.315Z,148.70
2019-04-07T21:02:08.628Z,157.95
2019-04-07T21:04:53.081Z,148.38
2019-04-07T21:07:35.479Z,148.43
2019-04-07T21:10:11.237Z,161.18
2019-04-07T21:12:47.062Z,158.15
2019-04-07T21:15:30.969Z,161.03
2019-04-07T21:18:11.008Z,157.95
2019-04-07T21:20:44.644Z,155.48
2019-04-07T21:23:19.525Z,166.07
2019-04-07T21:26:07.957Z,163.07
2019-04-07T21:28:48.345Z,165.55
2019-04-07T21:31:22.613Z,162.05
2019-04-07T21:34:10.300Z,167.18
2019-04-07T21:36:41.777Z,150.50
2019-04-07T21:39:21.660Z,161.35
2019-04-07T21:42:00.315Z,162.12
2019-04-07T21:44:40.071Z,148.82
2019-04-07T21:47:20.443Z,158.18
2019-04-07T21:49:54.178Z,153.40
2019-04-07T21:52:28.163Z,160.28
2019-04-07T21:55:01.891Z,169.65
2019-04-07T21:57:36.476Z,163.75
2019-04-07T22:00:27.048Z,167.60
2019-04-07T22:03:17.061Z,170.95
2019-04-07T22:05:54.523Z,179.82
2019-04-07T22:08:25.275Z,166.15
2019-04-07T22:10:55.384Z,175.47
2019-04-07T22:13:25.833Z,173.07
2019-04-07T22:15:59.323Z,166.25
2019-04-07T22:18:26.823Z,167.35
2019-04-07T22:20:57.045Z,164.85
2019-04-07T22:23:29.592Z,164.52
2019-04-07T22:25:57.874Z,166.18
2019-04-07T22:28:28.494Z,167.13
2019-04-07T22:30:59.162Z,168.40
2019-04-07T22:33:31.484Z,178.87
2019-04-07T22:36:00.244Z,158.52
2019-04-07T22:38:31.520Z,173.32
2019-04-07T22:41:01.095Z,173.02
2019-04-07T22:43:30.503Z,170.80
2019-04-07T22:46:07.709Z,179.25
2019-04-07T22:48:31.087Z,179.00
2019-04-07T22:51:02.832Z,171.77
2019-04-07T22:53:31.734Z,169.87
2019-04-07T22:56:04.789Z,172.65
2019-04-07T22:58:32.247Z,170.68
2019-04-07T23:01:02.683Z,174.32
2019-04-07T23:03:32.503Z,163.15
2019-04-07T23:06:02.010Z,166.85
2019-04-07T23:08:31.406Z,172.62
2019-04-07T23:11:15.047Z,161.22
2019-04-07T23:13:45.134Z,164.40
2019-04-07T23:16:17.183Z,163.20
2019-04-07T23:18:46.495Z,165.65
2019-04-07T23:21:17.157Z,159.27
2019-04-07T23:23:46.787Z,157.30
2019-04-07T23:26:16.193Z,162.68
2019-04-07T23:28:47.218Z,162.22
2019-04-07T23:31:16.989Z,160.65
2019-04-07T23:33:46.450Z,166.65
2019-04-07T23:36:15.967Z,168.65
2019-04-07T23:38:45.393Z,164.18
2019-04-07T23:41:15.911Z,165.55
2019-04-07T23:43:45.977Z,157.00
2019-04-07T23:46:22.873Z,161.70
2019-04-07T23:48:47.728Z,162.50
2019-04-07T23:51:17.111Z,160.22
2019-04-07T23:54:11.329Z,161.22
2019-04-07T23:56:41.895Z,163.95
2019-04-07T23:59:12.129Z,158.20
